createdAt,value
2019-03-17T00:02:02.018Z,11.60
2019-03-17T00:04:31.789Z,11.60
2019-03-17T00:07:08.444Z,11.60
2019-03-17T00:09:34.641Z,11.60
2019-03-17T00:12:00.796Z,11.60
2019-03-17T00:14:27.072Z,11.60
2019-03-17T00:16:53.250Z,11.60
2019-03-17T00:19:19.410Z,11.60
2019-03-17T00:21:45.588Z,11.60
2019-03-17T00:24:11.752Z,11.60
2019-03-17T00:26:37.913Z,11.60
2019-03-17T00:29:04.103Z,11.60
2019-03-17T00:31:30.257Z,11.60
2019-03-17T00:33:56.445Z,11.50
2019-03-17T00:36:25.137Z,11.60
2019-03-17T00:38:52.120Z,11.60
2019-03-17T00:41:20.854Z,11.60
2019-03-17T00:43:47.105Z,11.60
2019-03-17T00:46:13.276Z,11.60
2019-03-17T00:48:39.492Z,11.60
2019-03-17T00:51:05.649Z,11.60
2019-03-17T00:53:31.825Z,11.60
2019-03-17T00:55:57.972Z,11.60
2019-03-17T00:58:24.172Z,11.60
2019-03-17T01:00:50.358Z,11.60
2019-03-17T01:03:16.576Z,11.60
2019-03-17T01:05:42.834Z,11.60
2019-03-17T01:08:09.004Z,11.50
2019-03-17T01:10:35.286Z,11.60
2019-03-17T01:13:01.474Z,11.60
2019-03-17T01:15:27.662Z,11.50
2019-03-17T01:17:53.830Z,11.50
2019-03-17T01:20:20.000Z,11.50
2019-03-17T01:22:48.827Z,11.50
2019-03-17T01:25:15.028Z,11.50
2019-03-17T01:27:41.168Z,11.50
2019-03-17T01:30:11.004Z,11.50
2019-03-17T01:32:37.294Z,11.50
2019-03-17T01:35:09.550Z,11.50
2019-03-17T01:37:33.801Z,11.50
2019-03-17T01:40:00.041Z,11.50
2019-03-17T01:42:26.192Z,11.50
2019-03-17T01:44:52.412Z,11.50
2019-03-17T01:47:18.633Z,11.50
2019-03-17T01:49:44.883Z,11.50
2019-03-17T01:52:11.065Z,11.50
2019-03-17T01:54:37.240Z,11.50
2019-03-17T01:57:03.433Z,11.50
2019-03-17T01:59:29.610Z,11.50
2019-03-17T02:01:55.767Z,11.50
2019-03-17T02:04:21.928Z,11.50
2019-03-17T02:06:48.096Z,11.50
2019-03-17T02:09:17.106Z,11.50
2019-03-17T02:11:45.959Z,11.50
2019-03-17T02:14:12.127Z,11.50
2019-03-17T02:16:38.328Z,11.50
2019-03-17T02:19:04.556Z,11.50
2019-03-17T02:21:30.760Z,11.50
2019-03-17T02:23:56.955Z,11.50
2019-03-17T02:26:23.111Z,11.50
2019-03-17T02:28:49.308Z,11.50
2019-03-17T02:31:15.500Z,11.50
2019-03-17T02:33:41.657Z,11.50
2019-03-17T02:36:07.857Z,11.50
2019-03-17T02:38:34.023Z,11.40
2019-03-17T02:41:00.218Z,11.40
2019-03-17T02:43:28.941Z,11.40
2019-03-17T02:45:55.135Z,11.40
2019-03-17T02:48:21.302Z,11.40
2019-03-17T02:50:47.535Z,11.40
2019-03-17T02:53:13.754Z,11.40
2019-03-17T02:55:39.951Z,11.40
2019-03-17T02:58:06.127Z,11.40
2019-03-17T03:00:32.295Z,11.30
2019-03-17T03:02:58.486Z,11.30
2019-03-17T03:05:24.665Z,11.30
2019-03-17T03:07:50.829Z,11.40
2019-03-17T03:10:23.269Z,11.40
2019-03-17T03:12:49.461Z,11.30
2019-03-17T03:15:15.658Z,11.30
2019-03-17T03:17:41.812Z,11.30
2019-03-17T03:20:08.342Z,11.30
2019-03-17T03:22:34.515Z,11.30
2019-03-17T03:25:00.719Z,11.30
2019-03-17T03:27:26.988Z,11.20
2019-03-17T03:29:53.166Z,11.20
2019-03-17T03:32:19.355Z,11.20
2019-03-17T03:34:45.530Z,11.20
2019-03-17T03:37:26.893Z,11.20
2019-03-17T03:39:53.177Z,11.20
2019-03-17T03:42:19.846Z,11.20
2019-03-17T03:44:48.657Z,11.10
2019-03-17T03:47:14.822Z,11.10
2019-03-17T03:49:41.016Z,11.20
2019-03-17T03:52:07.261Z,11.10
2019-03-17T03:54:33.441Z,11.10
2019-03-17T03:56:59.879Z,11.00
2019-03-17T03:59:26.254Z,11.00
2019-03-17T04:01:52.453Z,10.90
2019-03-17T04:04:18.706Z,10.80
2019-03-17T04:06:44.973Z,10.80
2019-03-17T04:09:11.214Z,10.80
2019-03-17T04:11:37.394Z,10.70
2019-03-17T04:14:03.596Z,10.60
2019-03-17T04:16:32.423Z,10.60
2019-03-17T04:18:58.581Z,10.50
2019-03-17T04:21:24.759Z,10.40
2019-03-17T04:23:50.934Z,10.40
2019-03-17T04:26:17.252Z,10.40
2019-03-17T04:28:43.408Z,10.40
2019-03-17T04:31:09.576Z,10.30
2019-03-17T04:33:35.768Z,10.30
2019-03-17T04:36:01.961Z,10.30
2019-03-17T04:38:28.151Z,10.20
2019-03-17T04:40:54.325Z,10.20
2019-03-17T04:43:20.480Z,10.10
2019-03-17T04:45:49.524Z,10.10
2019-03-17T04:48:15.848Z,10.00
2019-03-17T04:50:42.048Z,10.00
2019-03-17T04:53:08.237Z,9.90
2019-03-17T04:55:34.404Z,9.90
2019-03-17T04:58:00.622Z,9.90
2019-03-17T05:00:26.826Z,9.90
2019-03-17T05:02:52.986Z,9.90
2019-03-17T05:05:19.154Z,9.90
2019-03-17T05:07:45.358Z,9.90
2019-03-17T05:10:11.552Z,9.90
2019-03-17T05:12:37.749Z,9.90
2019-03-17T05:15:10.096Z,9.90
2019-03-17T05:17:36.326Z,9.90
2019-03-17T05:20:03.731Z,9.90
2019-03-17T05:22:29.931Z,9.90
2019-03-17T05:24:59.089Z,9.90
2019-03-17T05:27:25.261Z,9.90
2019-03-17T05:29:51.484Z,9.90
2019-03-17T05:32:17.666Z,10.00
2019-03-17T05:34:43.836Z,10.00
2019-03-17T05:37:10.032Z,9.90
2019-03-17T05:39:36.222Z,10.00
2019-03-17T05:42:02.433Z,9.90
2019-03-17T05:44:28.601Z,9.90
2019-03-17T05:46:54.825Z,9.80
2019-03-17T05:49:21.022Z,9.40
2019-03-17T05:51:47.204Z,8.90
2019-03-17T05:54:13.385Z,8.60
2019-03-17T05:56:39.587Z,8.30
2019-03-17T05:59:05.892Z,8.20
2019-03-17T06:01:32.201Z,8.10
2019-03-17T06:04:07.671Z,8.00
2019-03-17T06:06:33.962Z,8.00
2019-03-17T06:09:15.290Z,7.90
2019-03-17T06:11:41.522Z,7.90
2019-03-17T06:14:07.835Z,7.90
2019-03-17T06:16:52.505Z,7.90
2019-03-17T06:19:18.685Z,7.80
2019-03-17T06:21:44.890Z,7.80
2019-03-17T06:24:26.307Z,7.80
2019-03-17T06:26:52.542Z,7.70
2019-03-17T06:29:18.773Z,7.70
2019-03-17T06:31:44.958Z,7.70
2019-03-17T06:34:11.104Z,7.70
2019-03-17T06:36:37.271Z,7.70
2019-03-17T06:39:15.660Z,7.70
2019-03-17T06:41:41.833Z,7.70
2019-03-17T06:44:08.126Z,7.70
2019-03-17T06:46:34.316Z,7.70
2019-03-17T06:49:00.518Z,7.70
2019-03-17T06:51:26.710Z,7.70
2019-03-17T06:53:56.610Z,7.70
2019-03-17T06:56:24.083Z,7.70
2019-03-17T06:58:50.248Z,7.70
2019-03-17T07:01:22.475Z,7.70
2019-03-17T07:03:51.212Z,7.80
2019-03-17T07:06:17.398Z,7.90
2019-03-17T07:08:46.392Z,8.00
2019-03-17T07:11:12.570Z,8.00
2019-03-17T07:13:38.824Z,8.00
2019-03-17T07:16:05.001Z,7.90
2019-03-17T07:18:31.197Z,7.90
2019-03-17T07:20:57.489Z,7.90
2019-03-17T07:23:23.825Z,8.00
2019-03-17T07:25:50.048Z,8.00
2019-03-17T07:28:16.212Z,7.90
2019-03-17T07:30:42.387Z,7.80
2019-03-17T07:33:08.586Z,7.70
2019-03-17T07:35:34.795Z,7.80
2019-03-17T07:38:00.996Z,7.80
2019-03-17T07:40:27.276Z,7.80
2019-03-17T07:42:56.235Z,7.90
2019-03-17T07:45:22.421Z,7.90
2019-03-17T07:47:48.570Z,8.00
2019-03-17T07:50:14.737Z,8.00
2019-03-17T07:52:40.937Z,8.00
2019-03-17T07:55:08.286Z,8.10
2019-03-17T07:57:34.565Z,8.10
2019-03-17T08:00:00.721Z,8.10
2019-03-17T08:02:26.910Z,8.20
2019-03-17T08:04:53.092Z,8.20
2019-03-17T08:07:19.510Z,8.20
2019-03-17T08:09:48.352Z,8.20
2019-03-17T08:12:14.521Z,8.20
2019-03-17T08:14:40.684Z,8.20
2019-03-17T08:17:06.872Z,8.20
2019-03-17T08:19:33.124Z,8.20
2019-03-17T08:21:59.413Z,8.20
2019-03-17T08:24:25.618Z,8.20
2019-03-17T08:26:51.791Z,8.20
2019-03-17T08:29:17.956Z,8.30
2019-03-17T08:31:44.192Z,8.30
2019-03-17T08:34:10.335Z,8.30
2019-03-17T08:36:54.927Z,8.40
2019-03-17T08:39:21.125Z,8.40
2019-03-17T08:41:47.460Z,8.30
2019-03-17T08:44:13.647Z,8.30
2019-03-17T08:46:39.919Z,8.30
2019-03-17T08:49:06.110Z,8.30
2019-03-17T08:51:32.326Z,8.40
2019-03-17T08:54:07.868Z,8.40
2019-03-17T08:56:34.029Z,8.50
2019-03-17T08:59:00.238Z,8.50
2019-03-17T09:01:26.483Z,8.50
2019-03-17T09:03:52.672Z,8.60
2019-03-17T09:06:18.848Z,8.60
2019-03-17T09:08:45.037Z,8.60
2019-03-17T09:11:11.210Z,8.60
2019-03-17T09:13:37.410Z,8.60
2019-03-17T09:16:03.790Z,8.60
2019-03-17T09:18:30.071Z,8.60
2019-03-17T09:21:11.521Z,8.70
2019-03-17T09:23:37.688Z,8.70
2019-03-17T09:26:03.895Z,8.70
2019-03-17T09:28:30.098Z,8.80
2019-03-17T09:30:56.271Z,8.80
2019-03-17T09:33:22.507Z,8.90
2019-03-17T09:35:51.473Z,9.10
2019-03-17T09:38:17.664Z,9.30
2019-03-17T09:40:43.863Z,9.60
2019-03-17T09:43:10.104Z,9.80
2019-03-17T09:45:36.327Z,9.80
2019-03-17T09:48:02.529Z,9.80
2019-03-17T09:50:28.909Z,9.60
2019-03-17T09:52:58.131Z,9.30
2019-03-17T09:55:44.354Z,9.00
2019-03-17T09:58:13.144Z,8.70
2019-03-17T10:00:39.360Z,8.50
2019-03-17T10:03:05.637Z,8.40
2019-03-17T10:05:31.977Z,8.30
2019-03-17T10:08:16.591Z,8.40
2019-03-17T10:10:42.816Z,8.40
2019-03-17T10:13:09.104Z,8.50
2019-03-17T10:15:35.373Z,8.50
2019-03-17T10:18:01.694Z,8.50
2019-03-17T10:20:28.037Z,8.60
2019-03-17T10:22:54.324Z,9.30
2019-03-17T10:25:20.521Z,10.20
2019-03-17T10:27:46.914Z,13.10
2019-03-17T10:30:17.092Z,16.50
2019-03-17T10:32:46.138Z,19.60
2019-03-17T10:35:12.406Z,21.50
2019-03-17T10:37:41.139Z,22.50
2019-03-17T10:40:13.569Z,22.70
2019-03-17T10:42:39.864Z,22.90
2019-03-17T10:45:07.833Z,22.00
2019-03-17T10:47:34.046Z,20.10
2019-03-17T10:50:00.431Z,19.30
2019-03-17T10:52:26.620Z,19.50
2019-03-17T10:54:52.818Z,18.60
2019-03-17T10:57:19.189Z,17.00
2019-03-17T11:00:07.660Z,15.50
2019-03-17T11:02:52.154Z,14.20
2019-03-17T11:05:21.039Z,13.00
2019-03-17T11:07:47.225Z,12.70
2019-03-17T11:10:14.596Z,12.30
2019-03-17T11:12:43.582Z,12.10
2019-03-17T11:15:16.607Z,11.70
2019-03-17T11:17:42.830Z,11.50
2019-03-17T11:20:10.330Z,11.50
2019-03-17T11:22:36.616Z,11.20
2019-03-17T11:25:05.531Z,10.90
2019-03-17T11:27:31.758Z,10.80
2019-03-17T11:29:57.930Z,11.20
2019-03-17T11:32:24.222Z,12.00
2019-03-17T11:34:50.456Z,12.30
2019-03-17T11:37:16.676Z,11.90
2019-03-17T11:39:42.880Z,11.40
2019-03-17T11:42:09.130Z,11.10
2019-03-17T11:44:36.108Z,10.80
2019-03-17T11:47:02.766Z,10.40
2019-03-17T11:49:31.613Z,9.60
2019-03-17T11:51:57.824Z,9.00
2019-03-17T11:54:24.016Z,8.70
2019-03-17T11:56:50.202Z,8.30
2019-03-17T11:59:16.487Z,8.00
2019-03-17T12:01:42.894Z,7.80
2019-03-17T12:04:09.100Z,7.70
2019-03-17T12:06:35.434Z,7.80
2019-03-17T12:09:05.524Z,7.80
2019-03-17T12:11:31.708Z,7.80
2019-03-17T12:13:57.984Z,7.80
2019-03-17T12:16:24.327Z,7.90
2019-03-17T12:18:50.663Z,8.00
2019-03-17T12:21:19.626Z,8.10
2019-03-17T12:23:45.857Z,8.20
2019-03-17T12:26:12.316Z,8.30
2019-03-17T12:28:38.559Z,8.40
2019-03-17T12:31:07.565Z,8.70
2019-03-17T12:33:33.765Z,9.10
2019-03-17T12:35:59.952Z,9.30
2019-03-17T12:38:29.181Z,9.50
2019-03-17T12:41:10.766Z,9.60
2019-03-17T12:43:37.024Z,9.50
2019-03-17T12:46:03.370Z,9.40
2019-03-17T12:48:32.244Z,9.40
2019-03-17T12:51:16.681Z,9.20
2019-03-17T12:53:42.895Z,9.20
2019-03-17T12:56:10.384Z,9.10
2019-03-17T12:58:55.821Z,9.00
2019-03-17T13:01:40.923Z,8.90
2019-03-17T13:04:07.116Z,9.10
2019-03-17T13:06:33.311Z,9.30
2019-03-17T13:09:01.049Z,9.30
2019-03-17T13:11:27.479Z,9.40
2019-03-17T13:13:53.664Z,9.50
2019-03-17T13:16:19.862Z,9.60
2019-03-17T13:18:46.327Z,9.80
2019-03-17T13:21:12.571Z,10.00
2019-03-17T13:23:41.296Z,10.20
2019-03-17T13:26:10.204Z,10.60
2019-03-17T13:28:35.684Z,11.00
2019-03-17T13:31:02.003Z,11.10
2019-03-17T13:33:28.350Z,10.90
2019-03-17T13:35:54.574Z,10.60
2019-03-17T13:38:39.646Z,10.40
2019-03-17T13:41:05.987Z,10.10
2019-03-17T13:43:32.457Z,10.10
2019-03-17T13:45:58.674Z,10.00
2019-03-17T13:48:24.863Z,9.80
2019-03-17T13:50:51.067Z,9.80
2019-03-17T13:53:17.253Z,10.00
2019-03-17T13:55:43.562Z,10.80
2019-03-17T13:58:10.301Z,11.80
2019-03-17T14:00:51.887Z,12.70
2019-03-17T14:03:18.163Z,13.60
2019-03-17T14:05:44.538Z,14.20
2019-03-17T14:08:13.375Z,15.20
2019-03-17T14:10:41.361Z,15.00
2019-03-17T14:13:19.762Z,14.20
2019-03-17T14:15:46.132Z,13.60
2019-03-17T14:18:12.354Z,13.50
2019-03-17T14:20:38.575Z,13.60
2019-03-17T14:23:04.772Z,13.70
2019-03-17T14:25:32.869Z,13.20
2019-03-17T14:27:59.074Z,13.10
2019-03-17T14:30:25.283Z,13.50
2019-03-17T14:32:51.558Z,13.70
2019-03-17T14:35:17.948Z,13.90
2019-03-17T14:38:02.948Z,14.10
2019-03-17T14:40:29.156Z,14.60
2019-03-17T14:42:55.821Z,15.00
2019-03-17T14:45:22.209Z,15.30
2019-03-17T14:47:48.489Z,15.60
2019-03-17T14:50:22.148Z,15.80
2019-03-17T14:52:48.365Z,15.90
2019-03-17T14:55:14.667Z,15.50
2019-03-17T14:57:40.858Z,14.70
2019-03-17T15:00:10.563Z,14.10
2019-03-17T15:02:52.207Z,14.20
2019-03-17T15:05:18.411Z,14.60
2019-03-17T15:07:44.618Z,14.60
2019-03-17T15:10:13.811Z,14.70
2019-03-17T15:12:40.297Z,14.70
2019-03-17T15:15:09.917Z,14.70
2019-03-17T15:17:36.143Z,14.20
2019-03-17T15:20:05.202Z,13.50
2019-03-17T15:22:31.403Z,13.10
2019-03-17T15:24:57.612Z,12.80
2019-03-17T15:27:23.865Z,12.60
2019-03-17T15:29:50.150Z,12.30
2019-03-17T15:32:16.386Z,11.90
2019-03-17T15:34:42.650Z,11.50
2019-03-17T15:37:08.867Z,11.20
2019-03-17T15:39:35.090Z,11.00
2019-03-17T15:42:03.930Z,10.90
2019-03-17T15:44:48.680Z,10.80
2019-03-17T15:47:15.095Z,10.80
2019-03-17T15:49:41.298Z,10.80
2019-03-17T15:52:07.737Z,10.80
2019-03-17T15:54:46.278Z,10.90
2019-03-17T15:57:12.630Z,10.90
2019-03-17T15:59:38.860Z,10.80
2019-03-17T16:02:07.882Z,10.60
2019-03-17T16:04:34.080Z,10.60
2019-03-17T16:07:00.333Z,10.60
2019-03-17T16:09:28.622Z,10.60
2019-03-17T16:11:55.006Z,10.50
2019-03-17T16:14:39.971Z,10.40
2019-03-17T16:17:06.510Z,10.20
2019-03-17T16:19:35.314Z,10.10
2019-03-17T16:22:01.623Z,10.10
2019-03-17T16:24:27.830Z,10.00
2019-03-17T16:26:54.040Z,10.00
2019-03-17T16:29:20.236Z,9.90
2019-03-17T16:31:46.452Z,9.90
2019-03-17T16:34:12.792Z,9.80
2019-03-17T16:36:39.033Z,9.70
2019-03-17T16:39:06.105Z,9.70
2019-03-17T16:41:42.924Z,9.70
2019-03-17T16:44:00.433Z,9.60
2019-03-17T16:46:26.641Z,9.50
2019-03-17T16:48:52.840Z,9.50
2019-03-17T16:51:19.144Z,9.60
2019-03-17T16:53:45.545Z,9.60
2019-03-17T16:56:30.218Z,9.60
2019-03-17T16:58:56.532Z,9.50
2019-03-17T17:01:22.728Z,9.40
2019-03-17T17:03:48.918Z,9.30
2019-03-17T17:06:33.926Z,9.20
2019-03-17T17:09:00.184Z,9.20
2019-03-17T17:11:26.410Z,9.10
2019-03-17T17:13:52.635Z,9.00
2019-03-17T17:16:24.899Z,9.00
2019-03-17T17:18:51.144Z,9.00
2019-03-17T17:21:17.478Z,9.00
2019-03-17T17:23:43.689Z,9.00
2019-03-17T17:26:10.105Z,9.00
2019-03-17T17:28:36.405Z,9.00
2019-03-17T17:31:02.764Z,9.00
2019-03-17T17:33:47.999Z,8.90
2019-03-17T17:36:17.117Z,8.90
2019-03-17T17:38:43.310Z,8.90
2019-03-17T17:41:11.253Z,8.90
2019-03-17T17:43:52.725Z,8.80
2019-03-17T17:46:18.948Z,8.70
2019-03-17T17:48:45.186Z,8.60
2019-03-17T17:51:11.386Z,8.50
2019-03-17T17:53:37.648Z,8.50
2019-03-17T17:56:22.080Z,8.50
2019-03-17T17:58:48.309Z,8.40
2019-03-17T18:01:14.494Z,8.30
2019-03-17T18:03:51.187Z,8.20
2019-03-17T18:06:08.865Z,8.20
2019-03-17T18:08:37.858Z,8.20
2019-03-17T18:11:04.057Z,8.20
2019-03-17T18:13:30.290Z,8.20
2019-03-17T18:15:59.187Z,8.10
2019-03-17T18:18:25.224Z,8.10
2019-03-17T18:20:51.292Z,8.10
2019-03-17T18:23:18.562Z,8.10
2019-03-17T18:25:44.786Z,8.00
2019-03-17T18:28:10.908Z,8.00
2019-03-17T18:30:37.080Z,8.00
2019-03-17T18:33:03.193Z,8.00
2019-03-17T18:35:29.355Z,8.00
2019-03-17T18:37:55.545Z,7.90
2019-03-17T18:40:21.622Z,7.90
2019-03-17T18:42:53.951Z,7.90
2019-03-17T18:45:30.521Z,7.80
2019-03-17T18:47:57.834Z,7.80
2019-03-17T18:50:24.555Z,7.80
2019-03-17T18:52:50.740Z,7.80
2019-03-17T18:55:16.923Z,7.80
2019-03-17T18:57:43.024Z,7.80
2019-03-17T19:00:10.641Z,7.70
2019-03-17T19:02:39.768Z,7.70
2019-03-17T19:05:07.152Z,7.70
2019-03-17T19:07:51.971Z,7.70
2019-03-17T19:10:20.728Z,7.60
2019-03-17T19:12:46.955Z,7.50
2019-03-17T19:15:14.939Z,7.50
2019-03-17T19:17:41.160Z,7.50
2019-03-17T19:20:08.641Z,7.60
2019-03-17T19:22:37.408Z,7.50
2019-03-17T19:25:05.251Z,7.50
2019-03-17T19:27:34.110Z,7.50
2019-03-17T19:30:00.456Z,7.50
2019-03-17T19:32:29.286Z,7.40
2019-03-17T19:34:55.369Z,7.40
2019-03-17T19:37:33.540Z,7.40
2019-03-17T19:40:18.789Z,7.30
2019-03-17T19:42:57.404Z,7.40
2019-03-17T19:45:22.206Z,7.40
2019-03-17T19:47:48.354Z,7.30
2019-03-17T19:50:26.471Z,7.30
2019-03-17T19:52:52.546Z,7.30
2019-03-17T19:55:33.923Z,7.30
2019-03-17T19:58:00.102Z,7.30
2019-03-17T20:00:29.326Z,7.20
2019-03-17T20:02:55.453Z,7.20
2019-03-17T20:05:21.601Z,7.20
2019-03-17T20:07:47.687Z,7.20
2019-03-17T20:10:24.325Z,7.20
2019-03-17T20:12:50.448Z,7.20
2019-03-17T20:15:16.511Z,7.20
2019-03-17T20:18:01.564Z,7.20
2019-03-17T20:20:46.331Z,7.20
2019-03-17T20:23:12.459Z,7.10
2019-03-17T20:25:40.403Z,7.10
2019-03-17T20:28:22.012Z,7.10
2019-03-17T20:30:48.191Z,7.10
2019-03-17T20:33:32.640Z,7.00
2019-03-17T20:35:58.690Z,7.00
2019-03-17T20:38:40.112Z,7.00
2019-03-17T20:41:06.308Z,7.00
2019-03-17T20:43:35.476Z,6.90
2019-03-17T20:46:15.535Z,6.90
2019-03-17T20:48:41.658Z,6.80
2019-03-17T20:51:16.976Z,6.90
2019-03-17T20:53:43.067Z,6.80
2019-03-17T20:56:12.309Z,6.80
2019-03-17T20:58:38.503Z,6.80
2019-03-17T21:01:04.571Z,6.80
2019-03-17T21:03:33.319Z,6.80
2019-03-17T21:06:02.031Z,6.80
2019-03-17T21:08:46.627Z,6.80
2019-03-17T21:11:15.408Z,6.80
2019-03-17T21:13:47.044Z,6.80
2019-03-17T21:16:30.390Z,6.70
2019-03-17T21:18:59.179Z,6.70
2019-03-17T21:21:25.251Z,6.60
2019-03-17T21:23:51.373Z,6.60
2019-03-17T21:26:17.549Z,6.60
2019-03-17T21:28:43.634Z,6.60
2019-03-17T21:31:12.457Z,6.60
2019-03-17T21:33:40.302Z,6.60
2019-03-17T21:36:09.093Z,6.60
2019-03-17T21:38:50.252Z,6.60
2019-03-17T21:41:16.422Z,6.50
2019-03-17T21:43:42.800Z,6.60
2019-03-17T21:46:08.858Z,6.60
2019-03-17T21:48:35.143Z,6.60
2019-03-17T21:51:01.190Z,6.60
2019-03-17T21:53:30.228Z,6.60
2019-03-17T21:55:59.000Z,6.60
2019-03-17T21:58:25.078Z,6.60
2019-03-17T22:00:51.233Z,6.60
2019-03-17T22:03:17.492Z,6.50
2019-03-17T22:05:43.612Z,6.50
2019-03-17T22:08:09.822Z,6.50
2019-03-17T22:10:35.961Z,6.40
2019-03-17T22:13:14.205Z,6.50
2019-03-17T22:15:40.291Z,6.50
2019-03-17T22:18:15.667Z,6.40
2019-03-17T22:20:41.728Z,6.40
2019-03-17T22:23:07.804Z,6.40
2019-03-17T22:25:36.666Z,6.40
2019-03-17T22:28:08.275Z,6.40
2019-03-17T22:30:30.770Z,6.40
2019-03-17T22:32:56.947Z,6.40
2019-03-17T22:35:23.337Z,6.40
2019-03-17T22:38:01.547Z,6.40
2019-03-17T22:40:30.381Z,6.50
2019-03-17T22:42:56.578Z,6.50
2019-03-17T22:45:22.638Z,6.50
2019-03-17T22:47:48.778Z,6.50
2019-03-17T22:50:17.102Z,6.40
2019-03-17T22:52:43.301Z,6.40
2019-03-17T22:55:09.613Z,6.30
2019-03-17T22:57:35.792Z,6.30
2019-03-17T23:00:03.785Z,6.30
2019-03-17T23:02:29.839Z,6.30
2019-03-17T23:05:08.200Z,6.20
2019-03-17T23:07:34.228Z,6.20
2019-03-17T23:10:18.815Z,6.20
2019-03-17T23:12:44.873Z,6.20
2019-03-17T23:15:23.445Z,6.20
2019-03-17T23:17:49.515Z,6.20
2019-03-17T23:20:18.421Z,6.20
2019-03-17T23:22:44.462Z,6.20
2019-03-17T23:25:10.840Z,6.20
2019-03-17T23:27:36.887Z,6.20
2019-03-17T23:30:04.892Z,6.20
2019-03-17T23:32:30.932Z,6.10
2019-03-17T23:34:57.155Z,6.20
2019-03-17T23:37:23.271Z,6.20
2019-03-17T23:39:55.274Z,6.20
2019-03-17T23:42:21.436Z,6.20
2019-03-17T23:44:49.206Z,6.10
2019-03-17T23:47:15.470Z,6.20
2019-03-17T23:49:41.638Z,6.20
2019-03-17T23:52:10.511Z,6.20
2019-03-17T23:54:36.572Z,6.20
2019-03-17T23:57:11.948Z,6.20
2019-03-17T23:59:38.060Z,6.30
